sensor_id;sensor_type;location;lat;lon;timestamp;temperature;humidity
52127;DHT22;38120;53.176;6.614;2023-07-31T00:01:23;16.10;99.90
52127;DHT22;38120;53.176;6.614;2023-07-31T00:03:49;16.00;99.90
52127;DHT22;38120;53.176;6.614;2023-07-31T00:06:15;16.00;99.90
52127;DHT22;38120;53.176;6.614;2023-07-31T00:08:40;16.00;99.90
52127;DHT22;38120;53.176;6.614;2023-07-31T00:11:06;16.00;99.90
52127;DHT22;38120;53.176;6.614;2023-07-31T00:13:31;16.00;99.90
52127;DHT22;38120;53.176;6.614;2023-07-31T00:15:57;16.00;99.90
52127;DHT22;38120;53.176;6.614;2023-07-31T00:18:23;15.90;99.90
52127;DHT22;38120;53.176;6.614;2023-07-31T00:20:48;15.90;99.90
52127;DHT22;38120;53.176;6.614;2023-07-31T00:23:14;15.90;99.90
52127;DHT22;38120;53.176;6.614;2023-07-31T00:25:40;15.80;99.90
52127;DHT22;38120;53.176;6.614;2023-07-31T00:28:05;15.80;99.90
52127;DHT22;38120;53.176;6.614;2023-07-31T00:30:31;15.80;99.90
52127;DHT22;38120;53.176;6.614;2023-07-31T00:32:57;15.80;99.90
52127;DHT22;38120;53.176;6.614;2023-07-31T00:35:22;15.80;99.90
52127;DHT22;38120;53.176;6.614;2023-07-31T00:37:48;15.70;99.90
52127;DHT22;38120;53.176;6.614;2023-07-31T00:40:14;15.80;99.90
52127;DHT22;38120;53.176;6.614;2023-07-31T00:42:39;15.70;99.90
52127;DHT22;38120;53.176;6.614;2023-07-31T00:45:05;15.70;99.90
52127;DHT22;38120;53.176;6.614;2023-07-31T00:47:31;15.70;99.90
52127;DHT22;38120;53.176;6.614;2023-07-31T00:49:57;15.60;99.90
52127;DHT22;38120;53.176;6.614;2023-07-31T00:52:23;15.60;99.90
52127;DHT22;38120;53.176;6.614;2023-07-31T00:54:49;15.60;99.90
52127;DHT22;38120;53.176;6.614;2023-07-31T00:57:15;15.60;99.90
52127;DHT22;38120;53.176;6.614;2023-07-31T00:59:41;15.50;99.90
52127;DHT22;38120;53.176;6.614;2023-07-31T01:02:07;15.60;99.90
52127;DHT22;38120;53.176;6.614;2023-07-31T01:04:32;15.50;99.90
52127;DHT22;38120;53.176;6.614;2023-07-31T01:09:44;15.50;99.90
52127;DHT22;38120;53.176;6.614;2023-07-31T01:12:14;15.50;99.90
52127;DHT22;38120;53.176;6.614;2023-07-31T01:14:40;15.50;99.90
52127;DHT22;38120;53.176;6.614;2023-07-31T01:17:05;15.50;99.90
52127;DHT22;38120;53.176;6.614;2023-07-31T01:19:31;15.50;99.90
52127;DHT22;38120;53.176;6.614;2023-07-31T01:22:16;15.50;99.90
52127;DHT22;38120;53.176;6.614;2023-07-31T01:28:10;15.50;99.90
52127;DHT22;38120;53.176;6.614;2023-07-31T01:30:43;16.70;99.90
52127;DHT22;38120;53.176;6.614;2023-07-31T01:33:09;15.40;99.90
52127;DHT22;38120;53.176;6.614;2023-07-31T01:35:36;15.50;99.90
52127;DHT22;38120;53.176;6.614;2023-07-31T01:38:01;15.50;99.90
52127;DHT22;38120;53.176;6.614;2023-07-31T01:40:27;15.50;99.90
52127;DHT22;38120;53.176;6.614;2023-07-31T01:42:53;15.50;99.90
52127;DHT22;38120;53.176;6.614;2023-07-31T01:45:18;15.50;99.90
52127;DHT22;38120;53.176;6.614;2023-07-31T01:47:44;15.50;99.90
52127;DHT22;38120;53.176;6.614;2023-07-31T01:50:11;15.50;99.90
52127;DHT22;38120;53.176;6.614;2023-07-31T01:52:36;15.50;99.90
52127;DHT22;38120;53.176;6.614;2023-07-31T01:55:02;15.50;99.90
52127;DHT22;38120;53.176;6.614;2023-07-31T01:57:28;15.50;99.90
52127;DHT22;38120;53.176;6.614;2023-07-31T01:59:54;15.50;99.90
52127;DHT22;38120;53.176;6.614;2023-07-31T02:02:20;15.50;99.90
52127;DHT22;38120;53.176;6.614;2023-07-31T02:04:46;15.50;99.90
52127;DHT22;38120;53.176;6.614;2023-07-31T02:07:12;15.50;99.90
52127;DHT22;38120;53.176;6.614;2023-07-31T02:09:38;15.50;99.90
52127;DHT22;38120;53.176;6.614;2023-07-31T02:12:04;15.50;99.90
52127;DHT22;38120;53.176;6.614;2023-07-31T02:14:29;15.50;99.90
52127;DHT22;38120;53.176;6.614;2023-07-31T02:16:55;15.40;99.90
52127;DHT22;38120;53.176;6.614;2023-07-31T02:19:20;15.50;99.90
52127;DHT22;38120;53.176;6.614;2023-07-31T02:21:46;15.50;99.90
52127;DHT22;38120;53.176;6.614;2023-07-31T02:24:12;15.50;99.90
52127;DHT22;38120;53.176;6.614;2023-07-31T02:26:37;15.50;99.90
52127;DHT22;38120;53.176;6.614;2023-07-31T02:29:03;15.50;99.90
52127;DHT22;38120;53.176;6.614;2023-07-31T02:31:29;15.50;99.90
52127;DHT22;38120;53.176;6.614;2023-07-31T02:33:54;15.50;99.90
52127;DHT22;38120;53.176;6.614;2023-07-31T02:36:20;15.50;99.90
52127;DHT22;38120;53.176;6.614;2023-07-31T02:38:46;15.40;99.90
52127;DHT22;38120;53.176;6.614;2023-07-31T02:41:11;15.40;99.90
52127;DHT22;38120;53.176;6.614;2023-07-31T02:43:37;15.40;99.90
52127;DHT22;38120;53.176;6.614;2023-07-31T02:46:03;15.40;99.90
52127;DHT22;38120;53.176;6.614;2023-07-31T02:48:28;15.40;99.90
52127;DHT22;38120;53.176;6.614;2023-07-31T02:50:54;15.40;99.90
52127;DHT22;38120;53.176;6.614;2023-07-31T02:53:19;15.40;99.90
52127;DHT22;38120;53.176;6.614;2023-07-31T02:55:45;15.30;99.90
52127;DHT22;38120;53.176;6.614;2023-07-31T02:58:11;15.30;99.90
52127;DHT22;38120;53.176;6.614;2023-07-31T03:00:45;15.30;99.90
52127;DHT22;38120;53.176;6.614;2023-07-31T03:03:10;15.30;99.90
52127;DHT22;38120;53.176;6.614;2023-07-31T03:05:37;15.30;99.90
52127;DHT22;38120;53.176;6.614;2023-07-31T03:08:02;15.30;99.90
52127;DHT22;38120;53.176;6.614;2023-07-31T03:10:29;15.30;99.90
52127;DHT22;38120;53.176;6.614;2023-07-31T03:12:54;15.30;99.90
52127;DHT22;38120;53.176;6.614;2023-07-31T03:15:20;15.30;99.90
52127;DHT22;38120;53.176;6.614;2023-07-31T03:17:46;15.30;99.90
52127;DHT22;38120;53.176;6.614;2023-07-31T03:20:11;15.30;99.90
52127;DHT22;38120;53.176;6.614;2023-07-31T03:22:37;15.30;99.90
52127;DHT22;38120;53.176;6.614;2023-07-31T03:25:03;15.30;99.90
52127;DHT22;38120;53.176;6.614;2023-07-31T03:27:29;15.30;99.90
52127;DHT22;38120;53.176;6.614;2023-07-31T03:29:55;15.20;99.90
52127;DHT22;38120;53.176;6.614;2023-07-31T03:32:21;15.30;99.90
52127;DHT22;38120;53.176;6.614;2023-07-31T03:34:46;15.30;99.90
52127;DHT22;38120;53.176;6.614;2023-07-31T03:37:12;15.30;99.90
52127;DHT22;38120;53.176;6.614;2023-07-31T03:39:38;15.30;99.90
52127;DHT22;38120;53.176;6.614;2023-07-31T03:42:04;15.20;99.90
52127;DHT22;38120;53.176;6.614;2023-07-31T03:44:29;15.30;99.90
52127;DHT22;38120;53.176;6.614;2023-07-31T03:46:55;15.30;99.90
52127;DHT22;38120;53.176;6.614;2023-07-31T03:49:21;15.30;99.90
52127;DHT22;38120;53.176;6.614;2023-07-31T03:51:46;15.30;99.90
52127;DHT22;38120;53.176;6.614;2023-07-31T03:54:12;15.30;99.90
52127;DHT22;38120;53.176;6.614;2023-07-31T03:56:38;15.30;99.90
52127;DHT22;38120;53.176;6.614;2023-07-31T03:59:04;15.30;99.90
52127;DHT22;38120;53.176;6.614;2023-07-31T04:01:30;15.30;99.90
52127;DHT22;38120;53.176;6.614;2023-07-31T04:03:55;15.30;99.90
52127;DHT22;38120;53.176;6.614;2023-07-31T04:06:21;15.30;99.90
52127;DHT22;38120;53.176;6.614;2023-07-31T04:08:47;15.30;99.90
52127;DHT22;38120;53.176;6.614;2023-07-31T04:11:13;15.30;99.90
52127;DHT22;38120;53.176;6.614;2023-07-31T04:13:39;15.30;99.90
52127;DHT22;38120;53.176;6.614;2023-07-31T04:16:04;15.30;99.90
52127;DHT22;38120;53.176;6.614;2023-07-31T04:18:31;15.30;99.90
52127;DHT22;38120;53.176;6.614;2023-07-31T04:20:58;15.30;99.90
52127;DHT22;38120;53.176;6.614;2023-07-31T04:23:29;15.40;99.90
52127;DHT22;38120;53.176;6.614;2023-07-31T04:25:55;15.40;99.90
52127;DHT22;38120;53.176;6.614;2023-07-31T04:28:21;15.30;99.90
52127;DHT22;38120;53.176;6.614;2023-07-31T04:30:47;15.40;99.90
52127;DHT22;38120;53.176;6.614;2023-07-31T04:33:13;15.40;99.90
52127;DHT22;38120;53.176;6.614;2023-07-31T04:35:39;15.40;99.90
52127;DHT22;38120;53.176;6.614;2023-07-31T04:38:04;15.40;99.90
52127;DHT22;38120;53.176;6.614;2023-07-31T04:40:30;15.30;99.90
52127;DHT22;38120;53.176;6.614;2023-07-31T04:42:56;15.40;99.90
52127;DHT22;38120;53.176;6.614;2023-07-31T04:45:22;15.40;99.90
52127;DHT22;38120;53.176;6.614;2023-07-31T04:47:47;15.40;99.90
52127;DHT22;38120;53.176;6.614;2023-07-31T04:50:13;15.40;99.90
52127;DHT22;38120;53.176;6.614;2023-07-31T04:52:39;15.40;99.90
52127;DHT22;38120;53.176;6.614;2023-07-31T04:55:05;15.40;99.90
52127;DHT22;38120;53.176;6.614;2023-07-31T04:57:31;15.40;99.90
52127;DHT22;38120;53.176;6.614;2023-07-31T04:59:56;15.40;99.90
52127;DHT22;38120;53.176;6.614;2023-07-31T05:02:22;15.40;99.90
52127;DHT22;38120;53.176;6.614;2023-07-31T05:04:48;15.40;99.90
52127;DHT22;38120;53.176;6.614;2023-07-31T05:07:14;15.40;99.90
52127;DHT22;38120;53.176;6.614;2023-07-31T05:09:39;15.50;99.90
52127;DHT22;38120;53.176;6.614;2023-07-31T05:12:05;15.50;99.90
52127;DHT22;38120;53.176;6.614;2023-07-31T05:14:31;15.50;99.90
52127;DHT22;38120;53.176;6.614;2023-07-31T05:16:57;15.50;99.90
52127;DHT22;38120;53.176;6.614;2023-07-31T05:19:22;15.40;99.90
52127;DHT22;38120;53.176;6.614;2023-07-31T05:21:48;15.40;99.90
52127;DHT22;38120;53.176;6.614;2023-07-31T05:24:14;15.50;99.90
52127;DHT22;38120;53.176;6.614;2023-07-31T05:26:39;15.50;99.90
52127;DHT22;38120;53.176;6.614;2023-07-31T05:29:05;15.50;99.90
52127;DHT22;38120;53.176;6.614;2023-07-31T05:31:31;15.50;99.90
52127;DHT22;38120;53.176;6.614;2023-07-31T05:33:58;15.50;99.90
52127;DHT22;38120;53.176;6.614;2023-07-31T05:36:23;15.50;99.90
52127;DHT22;38120;53.176;6.614;2023-07-31T05:38:49;15.50;99.90
52127;DHT22;38120;53.176;6.614;2023-07-31T05:41:15;15.50;99.90
52127;DHT22;38120;53.176;6.614;2023-07-31T05:43:41;15.50;99.90
52127;DHT22;38120;53.176;6.614;2023-07-31T05:46:08;15.50;99.90
52127;DHT22;38120;53.176;6.614;2023-07-31T05:48:35;15.60;99.90
52127;DHT22;38120;53.176;6.614;2023-07-31T05:51:00;15.60;99.90
52127;DHT22;38120;53.176;6.614;2023-07-31T05:53:26;15.60;99.90
52127;DHT22;38120;53.176;6.614;2023-07-31T05:55:52;15.60;99.90
52127;DHT22;38120;53.176;6.614;2023-07-31T05:58:17;15.60;99.90
52127;DHT22;38120;53.176;6.614;2023-07-31T06:00:43;15.70;99.90
52127;DHT22;38120;53.176;6.614;2023-07-31T06:03:09;15.70;99.90
52127;DHT22;38120;53.176;6.614;2023-07-31T06:05:34;15.70;99.90
52127;DHT22;38120;53.176;6.614;2023-07-31T06:08:00;15.70;99.90
52127;DHT22;38120;53.176;6.614;2023-07-31T06:10:26;15.70;99.90
52127;DHT22;38120;53.176;6.614;2023-07-31T06:12:52;14.90;99.90
52127;DHT22;38120;53.176;6.614;2023-07-31T06:15:18;15.80;99.90
52127;DHT22;38120;53.176;6.614;2023-07-31T06:17:45;15.90;99.90
52127;DHT22;38120;53.176;6.614;2023-07-31T06:20:10;15.90;99.90
52127;DHT22;38120;53.176;6.614;2023-07-31T06:22:36;15.90;99.90
52127;DHT22;38120;53.176;6.614;2023-07-31T06:25:02;15.90;99.90
52127;DHT22;38120;53.176;6.614;2023-07-31T06:27:28;15.90;99.90
52127;DHT22;38120;53.176;6.614;2023-07-31T06:29:54;15.90;99.90
52127;DHT22;38120;53.176;6.614;2023-07-31T06:32:19;16.00;99.90
52127;DHT22;38120;53.176;6.614;2023-07-31T06:34:45;16.10;99.90
52127;DHT22;38120;53.176;6.614;2023-07-31T06:37:11;16.10;99.90
52127;DHT22;38120;53.176;6.614;2023-07-31T06:39:37;16.20;99.90
52127;DHT22;38120;53.176;6.614;2023-07-31T06:42:03;16.20;99.90
52127;DHT22;38120;53.176;6.614;2023-07-31T06:44:29;16.30;99.90
52127;DHT22;38120;53.176;6.614;2023-07-31T06:46:55;16.40;99.90
52127;DHT22;38120;53.176;6.614;2023-07-31T06:49:21;16.40;99.90
52127;DHT22;38120;53.176;6.614;2023-07-31T06:51:46;16.50;99.90
52127;DHT22;38120;53.176;6.614;2023-07-31T06:54:12;16.60;99.90
52127;DHT22;38120;53.176;6.614;2023-07-31T06:56:38;16.80;99.90
52127;DHT22;38120;53.176;6.614;2023-07-31T06:59:04;16.90;99.90
52127;DHT22;38120;53.176;6.614;2023-07-31T07:01:30;16.90;99.90
52127;DHT22;38120;53.176;6.614;2023-07-31T07:03:56;16.90;99.90
52127;DHT22;38120;53.176;6.614;2023-07-31T07:06:22;16.80;99.90
52127;DHT22;38120;53.176;6.614;2023-07-31T07:08:48;16.80;99.90
52127;DHT22;38120;53.176;6.614;2023-07-31T07:11:13;16.90;99.90
52127;DHT22;38120;53.176;6.614;2023-07-31T07:13:39;16.90;99.90
52127;DHT22;38120;53.176;6.614;2023-07-31T07:16:05;16.90;99.90
52127;DHT22;38120;53.176;6.614;2023-07-31T07:18:30;16.90;99.90
52127;DHT22;38120;53.176;6.614;2023-07-31T07:20:56;16.90;99.90
52127;DHT22;38120;53.176;6.614;2023-07-31T07:23:23;16.90;99.90
52127;DHT22;38120;53.176;6.614;2023-07-31T07:25:49;16.90;99.90
52127;DHT22;38120;53.176;6.614;2023-07-31T07:28:15;16.90;99.90
52127;DHT22;38120;53.176;6.614;2023-07-31T07:30:41;16.80;99.90
52127;DHT22;38120;53.176;6.614;2023-07-31T07:33:06;16.80;99.90
52127;DHT22;38120;53.176;6.614;2023-07-31T07:35:36;16.80;99.90
52127;DHT22;38120;53.176;6.614;2023-07-31T07:38:03;16.80;99.90
52127;DHT22;38120;53.176;6.614;2023-07-31T07:40:29;16.80;99.90
52127;DHT22;38120;53.176;6.614;2023-07-31T07:42:54;16.70;99.90
52127;DHT22;38120;53.176;6.614;2023-07-31T07:45:20;16.70;99.90
52127;DHT22;38120;53.176;6.614;2023-07-31T07:47:46;16.70;99.90
52127;DHT22;38120;53.176;6.614;2023-07-31T07:50:11;16.70;99.90
52127;DHT22;38120;53.176;6.614;2023-07-31T07:52:37;16.70;99.90
52127;DHT22;38120;53.176;6.614;2023-07-31T07:55:03;16.60;99.90
52127;DHT22;38120;53.176;6.614;2023-07-31T07:57:29;16.60;99.90
52127;DHT22;38120;53.176;6.614;2023-07-31T07:59:55;16.60;99.90
52127;DHT22;38120;53.176;6.614;2023-07-31T08:02:22;16.60;99.90
52127;DHT22;38120;53.176;6.614;2023-07-31T08:04:48;16.60;99.90
52127;DHT22;38120;53.176;6.614;2023-07-31T08:07:14;16.60;99.90
52127;DHT22;38120;53.176;6.614;2023-07-31T08:09:40;16.50;99.90
52127;DHT22;38120;53.176;6.614;2023-07-31T08:12:06;16.60;99.90
52127;DHT22;38120;53.176;6.614;2023-07-31T08:14:32;16.60;99.90
52127;DHT22;38120;53.176;6.614;2023-07-31T08:16:58;16.60;99.90
52127;DHT22;38120;53.176;6.614;2023-07-31T08:19:23;16.60;99.90
52127;DHT22;38120;53.176;6.614;2023-07-31T08:21:49;16.70;99.90
52127;DHT22;38120;53.176;6.614;2023-07-31T08:24:15;16.70;99.90
52127;DHT22;38120;53.176;6.614;2023-07-31T08:26:40;16.70;99.90
52127;DHT22;38120;53.176;6.614;2023-07-31T08:29:06;16.80;99.90
52127;DHT22;38120;53.176;6.614;2023-07-31T08:31:32;16.90;99.90
52127;DHT22;38120;53.176;6.614;2023-07-31T08:33:57;16.80;99.90
52127;DHT22;38120;53.176;6.614;2023-07-31T08:36:23;16.90;99.90
52127;DHT22;38120;53.176;6.614;2023-07-31T08:38:49;16.90;99.90
52127;DHT22;38120;53.176;6.614;2023-07-31T08:41:15;17.00;99.90
52127;DHT22;38120;53.176;6.614;2023-07-31T08:43:44;17.10;99.90
52127;DHT22;38120;53.176;6.614;2023-07-31T08:46:11;17.20;99.90
52127;DHT22;38120;53.176;6.614;2023-07-31T08:48:37;17.20;99.90
52127;DHT22;38120;53.176;6.614;2023-07-31T08:51:06;17.10;99.90
52127;DHT22;38120;53.176;6.614;2023-07-31T08:53:32;17.20;99.90
52127;DHT22;38120;53.176;6.614;2023-07-31T08:55:59;17.20;99.90
52127;DHT22;38120;53.176;6.614;2023-07-31T08:58:25;17.30;99.90
52127;DHT22;38120;53.176;6.614;2023-07-31T09:00:54;17.30;99.90
52127;DHT22;38120;53.176;6.614;2023-07-31T09:03:23;17.40;99.90
52127;DHT22;38120;53.176;6.614;2023-07-31T09:05:50;17.40;99.90
52127;DHT22;38120;53.176;6.614;2023-07-31T09:08:19;17.40;99.90
52127;DHT22;38120;53.176;6.614;2023-07-31T09:10:46;17.40;99.90
52127;DHT22;38120;53.176;6.614;2023-07-31T09:13:15;17.40;99.90
52127;DHT22;38120;53.176;6.614;2023-07-31T09:15:44;17.50;99.90
52127;DHT22;38120;53.176;6.614;2023-07-31T09:18:11;17.50;99.90
52127;DHT22;38120;53.176;6.614;2023-07-31T09:20:37;17.40;99.90
52127;DHT22;38120;53.176;6.614;2023-07-31T09:25:33;17.40;99.90
52127;DHT22;38120;53.176;6.614;2023-07-31T09:28:03;17.40;99.90
52127;DHT22;38120;53.176;6.614;2023-07-31T09:30:29;17.40;99.90
52127;DHT22;38120;53.176;6.614;2023-07-31T09:33:04;17.40;99.90
52127;DHT22;38120;53.176;6.614;2023-07-31T09:35:33;17.40;99.90
52127;DHT22;38120;53.176;6.614;2023-07-31T09:38:03;17.40;99.90
52127;DHT22;38120;53.176;6.614;2023-07-31T09:40:30;17.40;99.90
52127;DHT22;38120;53.176;6.614;2023-07-31T09:43:01;17.50;99.90
52127;DHT22;38120;53.176;6.614;2023-07-31T09:45:28;17.50;99.90
52127;DHT22;38120;53.176;6.614;2023-07-31T09:47:54;17.50;99.90
52127;DHT22;38120;53.176;6.614;2023-07-31T09:50:21;17.60;99.90
52127;DHT22;38120;53.176;6.614;2023-07-31T09:52:47;17.60;99.90
52127;DHT22;38120;53.176;6.614;2023-07-31T09:55:13;17.60;99.90
52127;DHT22;38120;53.176;6.614;2023-07-31T09:57:45;17.70;99.90
52127;DHT22;38120;53.176;6.614;2023-07-31T10:00:15;17.60;99.90
52127;DHT22;38120;53.176;6.614;2023-07-31T10:02:45;17.70;99.90
52127;DHT22;38120;53.176;6.614;2023-07-31T10:05:14;17.70;99.90
52127;DHT22;38120;53.176;6.614;2023-07-31T10:07:52;17.60;99.90
52127;DHT22;38120;53.176;6.614;2023-07-31T10:10:20;17.70;99.90
52127;DHT22;38120;53.176;6.614;2023-07-31T10:12:51;17.70;99.90
52127;DHT22;38120;53.176;6.614;2023-07-31T10:15:17;17.70;99.90
52127;DHT22;38120;53.176;6.614;2023-07-31T10:17:44;17.70;99.90
52127;DHT22;38120;53.176;6.614;2023-07-31T10:20:10;17.70;99.90
52127;DHT22;38120;53.176;6.614;2023-07-31T10:22:38;17.70;99.90
52127;DHT22;38120;53.176;6.614;2023-07-31T10:25:07;17.80;99.90
52127;DHT22;38120;53.176;6.614;2023-07-31T10:27:35;17.80;99.90
52127;DHT22;38120;53.176;6.614;2023-07-31T10:30:04;17.80;99.90
52127;DHT22;38120;53.176;6.614;2023-07-31T10:32:31;17.80;99.90
52127;DHT22;38120;53.176;6.614;2023-07-31T10:34:57;17.80;99.90
52127;DHT22;38120;53.176;6.614;2023-07-31T10:37:35;17.90;99.90
52127;DHT22;38120;53.176;6.614;2023-07-31T10:40:04;17.90;99.90
52127;DHT22;38120;53.176;6.614;2023-07-31T10:42:46;17.80;99.90
52127;DHT22;38120;53.176;6.614;2023-07-31T10:45:13;18.00;99.90
52127;DHT22;38120;53.176;6.614;2023-07-31T10:47:42;18.00;99.90
52127;DHT22;38120;53.176;6.614;2023-07-31T10:50:16;17.90;99.90
52127;DHT22;38120;53.176;6.614;2023-07-31T10:52:51;18.10;99.90
52127;DHT22;38120;53.176;6.614;2023-07-31T10:55:39;18.40;99.90
52127;DHT22;38120;53.176;6.614;2023-07-31T10:58:13;18.50;99.90
52127;DHT22;38120;53.176;6.614;2023-07-31T11:00:43;18.70;99.90
52127;DHT22;38120;53.176;6.614;2023-07-31T11:10:45;19.20;99.90
52127;DHT22;38120;53.176;6.614;2023-07-31T11:13:12;19.30;99.90
52127;DHT22;38120;53.176;6.614;2023-07-31T11:15:38;19.30;99.90
52127;DHT22;38120;53.176;6.614;2023-07-31T11:18:04;19.30;99.90
52127;DHT22;38120;53.176;6.614;2023-07-31T11:20:32;19.20;99.90
52127;DHT22;38120;53.176;6.614;2023-07-31T11:23:00;19.20;99.90
52127;DHT22;38120;53.176;6.614;2023-07-31T11:25:26;19.30;99.90
52127;DHT22;38120;53.176;6.614;2023-07-31T11:27:52;19.40;99.90
52127;DHT22;38120;53.176;6.614;2023-07-31T11:30:19;19.60;99.90
52127;DHT22;38120;53.176;6.614;2023-07-31T11:32:46;19.70;99.90
52127;DHT22;38120;53.176;6.614;2023-07-31T11:35:14;19.70;99.90
52127;DHT22;38120;53.176;6.614;2023-07-31T11:37:42;19.70;99.90
52127;DHT22;38120;53.176;6.614;2023-07-31T11:40:08;19.80;99.90
52127;DHT22;38120;53.176;6.614;2023-07-31T11:42:35;19.80;99.90
52127;DHT22;38120;53.176;6.614;2023-07-31T11:45:05;19.60;99.90
52127;DHT22;38120;53.176;6.614;2023-07-31T11:47:32;19.50;99.90
52127;DHT22;38120;53.176;6.614;2023-07-31T11:50:01;19.40;99.90
52127;DHT22;38120;53.176;6.614;2023-07-31T11:52:37;19.20;99.90
52127;DHT22;38120;53.176;6.614;2023-07-31T11:55:04;19.10;99.90
52127;DHT22;38120;53.176;6.614;2023-07-31T11:57:32;19.00;99.90
52127;DHT22;38120;53.176;6.614;2023-07-31T11:59:58;19.00;99.90
52127;DHT22;38120;53.176;6.614;2023-07-31T12:02:24;18.90;99.90
52127;DHT22;38120;53.176;6.614;2023-07-31T12:04:50;19.00;99.90
52127;DHT22;38120;53.176;6.614;2023-07-31T12:07:16;18.90;99.90
52127;DHT22;38120;53.176;6.614;2023-07-31T12:09:55;18.90;99.90
52127;DHT22;38120;53.176;6.614;2023-07-31T12:12:26;18.90;99.90
52127;DHT22;38120;53.176;6.614;2023-07-31T12:14:52;18.80;99.90
52127;DHT22;38120;53.176;6.614;2023-07-31T12:17:19;18.70;99.90
52127;DHT22;38120;53.176;6.614;2023-07-31T12:19:48;18.90;99.90
52127;DHT22;38120;53.176;6.614;2023-07-31T12:22:14;18.80;99.90
52127;DHT22;38120;53.176;6.614;2023-07-31T12:24:42;18.80;99.90
52127;DHT22;38120;53.176;6.614;2023-07-31T12:27:14;18.90;99.90
52127;DHT22;38120;53.176;6.614;2023-07-31T12:29:42;19.00;99.90
52127;DHT22;38120;53.176;6.614;2023-07-31T12:32:20;18.90;99.90
52127;DHT22;38120;53.176;6.614;2023-07-31T12:34:46;18.80;99.90
52127;DHT22;38120;53.176;6.614;2023-07-31T12:37:12;18.90;99.90
52127;DHT22;38120;53.176;6.614;2023-07-31T12:39:37;18.90;99.90
52127;DHT22;38120;53.176;6.614;2023-07-31T12:42:03;19.00;99.90
52127;DHT22;38120;53.176;6.614;2023-07-31T12:44:29;19.00;99.90
52127;DHT22;38120;53.176;6.614;2023-07-31T12:46:55;19.10;99.90
52127;DHT22;38120;53.176;6.614;2023-07-31T12:49:20;18.90;99.90
52127;DHT22;38120;53.176;6.614;2023-07-31T12:51:46;19.00;99.90
52127;DHT22;38120;53.176;6.614;2023-07-31T12:54:12;19.00;99.90
52127;DHT22;38120;53.176;6.614;2023-07-31T12:56:38;19.00;99.90
52127;DHT22;38120;53.176;6.614;2023-07-31T12:59:03;19.00;99.90
52127;DHT22;38120;53.176;6.614;2023-07-31T13:01:29;19.00;99.90
52127;DHT22;38120;53.176;6.614;2023-07-31T13:03:55;19.00;99.90
52127;DHT22;38120;53.176;6.614;2023-07-31T13:06:21;19.00;99.90
52127;DHT22;38120;53.176;6.614;2023-07-31T13:08:47;18.80;99.90
52127;DHT22;38120;53.176;6.614;2023-07-31T13:11:13;18.70;99.90
52127;DHT22;38120;53.176;6.614;2023-07-31T13:13:38;18.70;99.90
52127;DHT22;38120;53.176;6.614;2023-07-31T13:16:04;18.70;99.90
52127;DHT22;38120;53.176;6.614;2023-07-31T13:18:30;18.70;99.90
52127;DHT22;38120;53.176;6.614;2023-07-31T13:20:55;18.70;99.90
52127;DHT22;38120;53.176;6.614;2023-07-31T13:23:21;18.80;99.90
52127;DHT22;38120;53.176;6.614;2023-07-31T13:25:47;18.80;99.90
52127;DHT22;38120;53.176;6.614;2023-07-31T13:28:12;18.80;99.90
52127;DHT22;38120;53.176;6.614;2023-07-31T13:30:38;18.80;99.90
52127;DHT22;38120;53.176;6.614;2023-07-31T13:33:04;18.80;99.90
52127;DHT22;38120;53.176;6.614;2023-07-31T13:35:30;18.80;99.90
52127;DHT22;38120;53.176;6.614;2023-07-31T13:37:57;18.90;99.90
52127;DHT22;38120;53.176;6.614;2023-07-31T13:40:23;19.00;99.90
52127;DHT22;38120;53.176;6.614;2023-07-31T13:42:48;19.20;99.90
52127;DHT22;38120;53.176;6.614;2023-07-31T13:45:14;19.20;99.90
52127;DHT22;38120;53.176;6.614;2023-07-31T13:47:40;19.20;99.90
52127;DHT22;38120;53.176;6.614;2023-07-31T13:50:06;19.20;99.90
52127;DHT22;38120;53.176;6.614;2023-07-31T13:52:32;19.20;99.90
52127;DHT22;38120;53.176;6.614;2023-07-31T13:54:57;19.20;99.90
52127;DHT22;38120;53.176;6.614;2023-07-31T13:57:24;19.20;99.90
52127;DHT22;38120;53.176;6.614;2023-07-31T13:59:50;19.20;99.90
52127;DHT22;38120;53.176;6.614;2023-07-31T14:02:15;19.20;99.90
52127;DHT22;38120;53.176;6.614;2023-07-31T14:04:41;19.20;99.90
52127;DHT22;38120;53.176;6.614;2023-07-31T14:07:07;19.40;99.90
52127;DHT22;38120;53.176;6.614;2023-07-31T14:09:32;19.50;99.90
52127;DHT22;38120;53.176;6.614;2023-07-31T14:11:58;19.60;99.90
52127;DHT22;38120;53.176;6.614;2023-07-31T14:14:24;19.40;99.90
52127;DHT22;38120;53.176;6.614;2023-07-31T14:16:49;19.50;99.90
52127;DHT22;38120;53.176;6.614;2023-07-31T14:19:15;19.60;99.90
52127;DHT22;38120;53.176;6.614;2023-07-31T14:21:41;19.50;99.90
52127;DHT22;38120;53.176;6.614;2023-07-31T14:24:06;19.50;99.90
52127;DHT22;38120;53.176;6.614;2023-07-31T14:26:32;19.40;99.90
52127;DHT22;38120;53.176;6.614;2023-07-31T14:28:58;19.20;99.90
52127;DHT22;38120;53.176;6.614;2023-07-31T14:31:24;19.40;99.90
52127;DHT22;38120;53.176;6.614;2023-07-31T14:33:49;19.40;99.90
52127;DHT22;38120;53.176;6.614;2023-07-31T14:36:15;19.40;99.90
52127;DHT22;38120;53.176;6.614;2023-07-31T14:38:40;19.30;99.90
52127;DHT22;38120;53.176;6.614;2023-07-31T14:41:06;19.30;99.90
52127;DHT22;38120;53.176;6.614;2023-07-31T14:43:32;19.40;99.90
52127;DHT22;38120;53.176;6.614;2023-07-31T14:45:58;19.40;99.90
52127;DHT22;38120;53.176;6.614;2023-07-31T14:48:26;19.40;99.90
52127;DHT22;38120;53.176;6.614;2023-07-31T14:50:52;19.50;99.90
52127;DHT22;38120;53.176;6.614;2023-07-31T14:53:18;19.50;99.90
52127;DHT22;38120;53.176;6.614;2023-07-31T14:55:44;19.40;99.90
52127;DHT22;38120;53.176;6.614;2023-07-31T14:58:09;19.30;99.90
52127;DHT22;38120;53.176;6.614;2023-07-31T15:00:36;19.30;99.90
52127;DHT22;38120;53.176;6.614;2023-07-31T15:03:03;19.20;99.90
52127;DHT22;38120;53.176;6.614;2023-07-31T15:05:28;19.20;99.90
52127;DHT22;38120;53.176;6.614;2023-07-31T15:07:54;19.20;99.90
52127;DHT22;38120;53.176;6.614;2023-07-31T15:10:20;19.20;99.90
52127;DHT22;38120;53.176;6.614;2023-07-31T15:12:46;19.10;99.90
52127;DHT22;38120;53.176;6.614;2023-07-31T15:15:11;19.20;99.90
52127;DHT22;38120;53.176;6.614;2023-07-31T15:17:37;19.20;99.90
52127;DHT22;38120;53.176;6.614;2023-07-31T15:20:03;19.10;99.90
52127;DHT22;38120;53.176;6.614;2023-07-31T15:22:29;19.10;99.90
52127;DHT22;38120;53.176;6.614;2023-07-31T15:24:56;19.00;99.90
52127;DHT22;38120;53.176;6.614;2023-07-31T15:27:22;19.10;99.90
52127;DHT22;38120;53.176;6.614;2023-07-31T15:29:52;19.00;99.90
52127;DHT22;38120;53.176;6.614;2023-07-31T15:32:18;19.00;99.90
52127;DHT22;38120;53.176;6.614;2023-07-31T15:34:44;19.00;99.90
52127;DHT22;38120;53.176;6.614;2023-07-31T15:37:10;19.00;99.90
52127;DHT22;38120;53.176;6.614;2023-07-31T15:39:35;19.00;99.90
52127;DHT22;38120;53.176;6.614;2023-07-31T15:42:01;19.00;99.90